Terminal Aerodrome Forecast
Issued by NWS Charleston, WV

Current Version | Previous Version | Graphics & Text | Print | Product List | Glossary On
Versions: 1 2 3 4 5 6 7 8 9 10 11 12 13 14 15 16 17 18 19 20 21 22 23 24
000
FTUS41 KRLX 241700
TAFEKN
TAF
KEKN 241740Z 2418/2518 34004KT 6SM BR VCSH BKN008
      TEMPO 2418/2420 5SM -SHRA BR
     FM242000 33005KT P6SM OVC250
     FM250300 00000KT 4SM BR SCT250
     FM250600 00000KT 1 1/2SM BR SCT030
     FM250700 00000KT 1/4SM FG SCT030
     FM251300 00000KT 1SM BR FEW030
     FM251500 00000KT 6SM BR FEW030=

USA.gov is the U.S. government's official web portal to all federal, state and local government web resources and services.